createdAt,value
2019-05-13T00:01:34.858Z,11.20
2019-05-13T00:04:03.590Z,11.40
2019-05-13T00:06:30.276Z,11.30
2019-05-13T00:08:57.096Z,11.10
2019-05-13T00:11:24.015Z,11.10
2019-05-13T00:13:50.734Z,11.20
2019-05-13T00:16:17.442Z,11.20
2019-05-13T00:18:44.539Z,11.10
2019-05-13T00:21:11.176Z,11.00
2019-05-13T00:23:37.766Z,11.00
2019-05-13T00:26:04.495Z,11.00
2019-05-13T00:28:33.982Z,11.10
2019-05-13T00:31:00.016Z,11.10
2019-05-13T00:33:26.659Z,11.10
2019-05-13T00:35:53.526Z,11.00
2019-05-13T00:38:20.422Z,11.00
2019-05-13T00:40:47.198Z,11.10
2019-05-13T00:43:14.396Z,10.90
2019-05-13T00:45:44.337Z,11.00
2019-05-13T00:48:11.173Z,11.10
2019-05-13T00:50:37.903Z,11.00
2019-05-13T00:53:04.685Z,11.00
2019-05-13T00:55:34.297Z,11.00
2019-05-13T00:58:04.748Z,10.80
2019-05-13T01:00:33.893Z,10.90
2019-05-13T01:03:00.589Z,10.90
2019-05-13T01:05:27.197Z,10.90
2019-05-13T01:07:53.861Z,10.80
2019-05-13T01:10:20.799Z,10.90
2019-05-13T01:12:47.603Z,10.80
2019-05-13T01:15:14.721Z,10.90
2019-05-13T01:17:41.471Z,10.90
2019-05-13T01:20:08.633Z,10.80
2019-05-13T01:22:36.883Z,10.80
2019-05-13T01:25:04.601Z,10.70
2019-05-13T01:27:33.425Z,10.70
2019-05-13T01:29:59.871Z,10.60
2019-05-13T01:32:26.519Z,10.50
2019-05-13T01:34:53.854Z,10.40
2019-05-13T01:37:23.374Z,10.40
2019-05-13T01:39:49.539Z,10.60
2019-05-13T01:42:16.310Z,10.40
2019-05-13T01:44:43.765Z,10.40
2019-05-13T01:47:10.847Z,10.20
2019-05-13T01:49:37.726Z,10.20
2019-05-13T01:52:04.536Z,10.20
2019-05-13T01:54:33.638Z,10.30
2019-05-13T01:57:00.573Z,10.30
2019-05-13T01:59:27.214Z,10.40
2019-05-13T02:01:54.187Z,10.50
2019-05-13T02:04:20.934Z,10.40
2019-05-13T02:06:47.682Z,10.40
2019-05-13T02:09:14.360Z,10.40
2019-05-13T02:11:43.812Z,10.30
2019-05-13T02:14:09.708Z,10.10
2019-05-13T02:16:36.379Z,10.20
2019-05-13T02:19:03.829Z,10.20
2019-05-13T02:21:33.456Z,10.30
2019-05-13T02:23:59.304Z,10.40
2019-05-13T02:26:27.940Z,10.40
2019-05-13T02:28:54.568Z,10.10
2019-05-13T02:31:32.059Z,10.10
2019-05-13T02:33:52.913Z,10.00
2019-05-13T02:36:18.299Z,10.10
2019-05-13T02:38:45.863Z,10.00
2019-05-13T02:41:13.467Z,10.00
2019-05-13T02:43:42.142Z,10.10
2019-05-13T02:46:12.527Z,9.90
2019-05-13T02:48:37.500Z,10.00
2019-05-13T02:51:04.278Z,10.10
2019-05-13T02:53:33.511Z,10.20
2019-05-13T02:56:03.054Z,10.00
2019-05-13T02:58:32.942Z,10.00
2019-05-13T03:00:58.170Z,9.90
2019-05-13T03:03:26.371Z,9.90
2019-05-13T03:05:53.563Z,9.90
2019-05-13T03:08:38.552Z,9.80
2019-05-13T03:10:52.747Z,9.70
2019-05-13T03:13:18.206Z,9.80
2019-05-13T03:16:02.787Z,9.80
2019-05-13T03:18:33.328Z,9.80
2019-05-13T03:20:58.627Z,9.80
2019-05-13T03:23:25.247Z,9.80
2019-05-13T03:25:53.788Z,9.80
2019-05-13T03:28:22.345Z,9.70
2019-05-13T03:30:49.555Z,9.70
2019-05-13T03:33:20.119Z,9.60
2019-05-13T03:35:46.476Z,9.70
2019-05-13T03:38:13.097Z,9.70
2019-05-13T03:40:42.558Z,9.50
2019-05-13T03:43:12.608Z,9.50
2019-05-13T03:45:38.810Z,9.40
2019-05-13T03:48:05.624Z,9.50
2019-05-13T03:50:34.808Z,9.50
2019-05-13T03:53:02.990Z,9.50
2019-05-13T03:55:32.910Z,9.50
2019-05-13T03:58:02.987Z,9.40
2019-05-13T04:00:28.515Z,9.40
2019-05-13T04:02:55.364Z,9.30
2019-05-13T04:05:23.217Z,9.30
2019-05-13T04:07:52.260Z,9.20
2019-05-13T04:10:22.402Z,9.10
2019-05-13T04:12:47.502Z,9.20
2019-05-13T04:15:14.611Z,9.30
2019-05-13T04:17:42.793Z,9.30
2019-05-13T04:20:12.615Z,9.40
2019-05-13T04:22:38.493Z,9.40
2019-05-13T04:25:05.760Z,9.40
2019-05-13T04:27:34.429Z,9.40
2019-05-13T04:30:03.562Z,9.40
2019-05-13T04:32:33.296Z,9.50
2019-05-13T04:34:58.275Z,9.50
2019-05-13T04:37:24.998Z,9.60
2019-05-13T04:39:56.132Z,9.50
2019-05-13T04:42:23.144Z,9.50
2019-05-13T04:44:54.860Z,9.50
2019-05-13T04:47:22.935Z,9.40
2019-05-13T04:49:53.208Z,9.20
2019-05-13T04:52:18.508Z,9.10
2019-05-13T04:54:45.284Z,9.20
2019-05-13T04:57:12.481Z,9.10
2019-05-13T04:59:44.377Z,9.00
2019-05-13T05:02:40.083Z,9.00
2019-05-13T05:05:03.284Z,9.00
2019-05-13T05:07:34.035Z,9.10
2019-05-13T05:10:38.287Z,9.10
2019-05-13T05:13:38.789Z,9.00
2019-05-13T05:16:28.637Z,8.90
2019-05-13T05:19:24.137Z,9.00
2019-05-13T05:22:03.991Z,9.10
2019-05-13T05:24:52.054Z,9.20
2019-05-13T05:27:46.093Z,9.20
2019-05-13T05:30:51.981Z,9.10
2019-05-13T05:33:45.523Z,9.20
2019-05-13T05:36:34.214Z,9.30
2019-05-13T05:39:07.575Z,9.30
2019-05-13T05:41:35.743Z,9.50
2019-05-13T05:44:05.765Z,9.60
2019-05-13T05:46:38.988Z,9.80
2019-05-13T05:49:08.456Z,9.60
2019-05-13T05:51:37.521Z,9.80
2019-05-13T05:54:04.357Z,9.90
2019-05-13T05:56:32.613Z,10.00
2019-05-13T05:59:02.919Z,10.10
2019-05-13T06:01:33.153Z,10.20
2019-05-13T06:04:01.516Z,10.20
2019-05-13T06:06:29.003Z,10.30
2019-05-13T06:08:55.728Z,10.40
2019-05-13T06:11:22.486Z,10.50
2019-05-13T06:13:52.153Z,10.60
2019-05-13T06:16:18.056Z,10.70
2019-05-13T06:18:44.908Z,10.70
2019-05-13T06:21:12.280Z,10.80
2019-05-13T06:23:41.703Z,10.90
2019-05-13T06:26:07.623Z,11.00
2019-05-13T06:28:34.595Z,11.20
2019-05-13T06:31:02.563Z,11.20
2019-05-13T06:33:31.621Z,11.40
2019-05-13T06:36:01.054Z,11.50
2019-05-13T06:38:27.275Z,11.60
2019-05-13T06:41:03.334Z,11.80
2019-05-13T06:43:22.541Z,12.10
2019-05-13T06:45:51.391Z,12.20
2019-05-13T06:48:18.029Z,12.30
2019-05-13T06:50:44.765Z,12.50
2019-05-13T06:53:12.640Z,12.80
2019-05-13T06:55:41.719Z,13.00
2019-05-13T06:58:08.206Z,13.20
2019-05-13T07:00:35.183Z,13.30
2019-05-13T07:03:02.450Z,13.40
2019-05-13T07:05:31.669Z,13.80
2019-05-13T07:08:02.562Z,13.80
2019-05-13T07:10:29.196Z,14.20
2019-05-13T07:12:56.118Z,14.40
2019-05-13T07:15:22.955Z,14.80
2019-05-13T07:17:52.001Z,15.00
2019-05-13T07:20:18.682Z,15.10
2019-05-13T07:22:45.688Z,15.00
2019-05-13T07:25:12.518Z,15.40
2019-05-13T07:27:39.246Z,15.50
2019-05-13T07:30:06.364Z,15.50
2019-05-13T07:32:33.813Z,15.60
2019-05-13T07:35:03.886Z,15.80
2019-05-13T07:37:31.779Z,16.30
2019-05-13T07:39:59.199Z,16.50
2019-05-13T07:42:25.894Z,16.80
2019-05-13T07:44:54.544Z,16.80
2019-05-13T07:47:22.260Z,16.90
2019-05-13T07:49:51.593Z,16.70
2019-05-13T07:52:17.911Z,16.60
2019-05-13T07:54:44.658Z,16.60
2019-05-13T07:57:12.478Z,16.50
2019-05-13T07:59:39.054Z,16.60
2019-05-13T08:02:05.677Z,17.00
2019-05-13T08:04:33.672Z,17.50
2019-05-13T08:07:14.737Z,17.80
2019-05-13T08:09:42.023Z,17.80
2019-05-13T08:12:13.894Z,18.40
2019-05-13T08:14:43.318Z,18.60
2019-05-13T08:17:07.602Z,18.10
2019-05-13T08:19:34.334Z,18.60
2019-05-13T08:22:02.204Z,18.60
2019-05-13T08:24:31.431Z,19.00
2019-05-13T08:27:02.119Z,19.50
2019-05-13T08:29:28.460Z,19.60
2019-05-13T08:31:55.090Z,19.80
2019-05-13T08:34:22.649Z,19.90
2019-05-13T08:36:51.426Z,20.40
2019-05-13T08:39:18.040Z,20.50
2019-05-13T08:41:44.806Z,20.30
2019-05-13T08:44:12.305Z,20.00
2019-05-13T08:46:41.382Z,20.60
2019-05-13T08:49:07.996Z,20.50
2019-05-13T08:51:35.010Z,20.30
2019-05-13T08:54:02.525Z,20.00
2019-05-13T08:56:32.633Z,20.10
2019-05-13T08:59:01.062Z,20.20
2019-05-13T09:01:27.541Z,20.40
2019-05-13T09:03:54.477Z,20.60
2019-05-13T09:06:22.106Z,20.90
2019-05-13T09:08:53.280Z,20.90
2019-05-13T09:11:17.626Z,20.40
2019-05-13T09:13:44.539Z,20.60
2019-05-13T09:16:13.399Z,20.80
2019-05-13T09:18:42.447Z,20.40
2019-05-13T09:21:08.515Z,20.30
2019-05-13T09:23:35.245Z,20.60
2019-05-13T09:26:02.727Z,21.40
2019-05-13T09:28:32.282Z,22.00
2019-05-13T09:30:58.365Z,22.00
2019-05-13T09:33:25.110Z,21.50
2019-05-13T09:35:53.514Z,21.50
2019-05-13T09:38:22.194Z,22.20
2019-05-13T09:40:48.841Z,22.10
2019-05-13T09:43:15.852Z,21.90
2019-05-13T09:45:42.707Z,22.30
2019-05-13T09:48:09.391Z,22.10
2019-05-13T09:50:36.369Z,22.00
2019-05-13T09:53:03.236Z,22.40
2019-05-13T09:55:32.819Z,22.60
2019-05-13T09:58:02.222Z,22.50
2019-05-13T10:00:28.166Z,22.70
2019-05-13T10:02:55.153Z,22.90
2019-05-13T10:05:22.511Z,23.00
2019-05-13T10:07:49.602Z,22.70
2019-05-13T10:10:16.461Z,21.70
2019-05-13T10:12:43.226Z,21.70
2019-05-13T10:15:12.587Z,21.60
2019-05-13T10:17:42.458Z,22.00
2019-05-13T10:20:08.778Z,22.10
2019-05-13T10:22:36.057Z,21.80
2019-05-13T10:25:05.573Z,22.30
2019-05-13T10:27:32.822Z,23.00
2019-05-13T10:30:00.071Z,22.50
2019-05-13T10:32:26.807Z,22.50
2019-05-13T10:34:54.492Z,22.60
2019-05-13T10:37:22.042Z,22.40
2019-05-13T10:39:51.121Z,22.00
2019-05-13T10:42:18.392Z,21.60
2019-05-13T10:44:45.029Z,21.50
2019-05-13T10:47:12.188Z,21.70
2019-05-13T10:49:41.880Z,21.70
2019-05-13T10:52:07.799Z,22.00
2019-05-13T10:54:34.543Z,22.20
2019-05-13T10:57:03.835Z,22.00
2019-05-13T10:59:29.855Z,22.10
2019-05-13T11:01:57.638Z,22.00
2019-05-13T11:04:24.671Z,21.60
2019-05-13T11:06:52.574Z,21.30
2019-05-13T11:09:21.855Z,21.40
2019-05-13T11:11:49.109Z,21.40
2019-05-13T11:14:15.984Z,21.60
2019-05-13T11:16:42.898Z,21.70
2019-05-13T11:19:11.912Z,21.30
2019-05-13T11:21:38.596Z,21.00
2019-05-13T11:24:05.391Z,20.90
2019-05-13T11:26:36.085Z,20.90
2019-05-13T11:29:02.765Z,21.10
2019-05-13T11:31:32.523Z,21.10
2019-05-13T11:33:57.577Z,21.50
2019-05-13T11:36:24.304Z,21.70
2019-05-13T11:38:53.118Z,21.70
2019-05-13T11:41:22.590Z,22.10
2019-05-13T11:44:08.088Z,22.30
2019-05-13T11:46:16.511Z,22.60
2019-05-13T11:48:43.329Z,22.20
2019-05-13T11:51:12.801Z,22.30
2019-05-13T11:53:38.631Z,22.00
2019-05-13T11:56:05.351Z,21.50
2019-05-13T11:58:32.594Z,21.10
2019-05-13T12:01:02.539Z,21.60
2019-05-13T12:03:32.182Z,21.70
2019-05-13T12:05:57.583Z,22.10
2019-05-13T12:08:24.385Z,21.90
2019-05-13T12:10:52.001Z,21.30
2019-05-13T12:13:22.696Z,20.80
2019-05-13T12:15:50.050Z,20.50
2019-05-13T12:18:17.795Z,20.30
2019-05-13T12:20:45.003Z,20.10
2019-05-13T12:23:12.996Z,20.10
2019-05-13T12:25:43.776Z,20.40
2019-05-13T12:28:11.372Z,20.50
2019-05-13T12:30:38.464Z,20.80
2019-05-13T12:33:05.410Z,21.00
2019-05-13T12:35:33.277Z,21.00
2019-05-13T12:38:00.003Z,21.00
2019-05-13T12:40:27.064Z,20.80
2019-05-13T12:42:56.191Z,20.60
2019-05-13T12:45:23.388Z,20.70
2019-05-13T12:47:53.079Z,20.90
2019-05-13T12:50:23.687Z,20.70
2019-05-13T12:52:50.934Z,20.70
2019-05-13T12:55:21.232Z,21.00
2019-05-13T12:57:47.733Z,20.80
2019-05-13T13:00:16.123Z,20.70
2019-05-13T13:02:49.989Z,20.60
2019-05-13T13:05:19.598Z,20.60
2019-05-13T13:07:42.531Z,20.50
2019-05-13T13:10:14.204Z,20.60
2019-05-13T13:12:37.812Z,20.50
2019-05-13T13:15:32.870Z,20.50
2019-05-13T13:17:35.862Z,20.50
2019-05-13T13:20:09.429Z,20.30
2019-05-13T13:22:33.637Z,20.30
2019-05-13T13:25:07.836Z,20.10
2019-05-13T13:27:59.937Z,20.20
2019-05-13T13:30:08.609Z,20.30
2019-05-13T13:32:34.345Z,20.30
2019-05-13T13:35:03.702Z,20.40
2019-05-13T13:37:33.771Z,20.10
2019-05-13T13:39:58.713Z,19.90
2019-05-13T13:42:25.591Z,20.20
2019-05-13T13:44:53.832Z,20.10
2019-05-13T13:47:24.302Z,20.10
2019-05-13T13:49:53.303Z,20.10
2019-05-13T13:52:18.867Z,20.10
2019-05-13T13:54:45.532Z,20.10
2019-05-13T13:57:13.497Z,20.20
2019-05-13T14:00:14.809Z,20.10
2019-05-13T14:02:13.060Z,20.30
2019-05-13T14:04:37.834Z,20.60
2019-05-13T14:09:33.386Z,20.70
2019-05-13T14:12:03.682Z,20.30
2019-05-13T14:14:31.963Z,20.00
2019-05-13T14:16:59.188Z,19.90
2019-05-13T14:19:25.994Z,19.90
2019-05-13T14:21:52.787Z,19.80
2019-05-13T14:24:21.583Z,19.60
2019-05-13T14:26:48.484Z,19.60
2019-05-13T14:29:15.086Z,19.60
2019-05-13T14:31:42.022Z,19.40
2019-05-13T14:34:11.398Z,19.40
2019-05-13T14:36:37.316Z,19.40
2019-05-13T14:39:05.769Z,19.40
2019-05-13T14:41:32.515Z,19.30
2019-05-13T14:43:59.263Z,19.10
2019-05-13T14:46:43.086Z,19.30
2019-05-13T14:48:54.550Z,19.50
2019-05-13T14:51:21.829Z,19.60
2019-05-13T14:53:48.762Z,19.60
2019-05-13T14:56:15.482Z,19.70
2019-05-13T14:58:42.261Z,19.60
2019-05-13T15:01:15.704Z,19.50
2019-05-13T15:03:37.480Z,19.40
2019-05-13T15:06:04.500Z,19.40
2019-05-13T15:08:32.961Z,19.40
2019-05-13T15:11:01.942Z,19.30
2019-05-13T15:13:28.569Z,19.30
2019-05-13T15:15:56.016Z,19.30
2019-05-13T15:18:22.634Z,19.20
2019-05-13T15:20:49.412Z,19.00
2019-05-13T15:23:16.255Z,18.80
2019-05-13T15:25:44.798Z,18.80
2019-05-13T15:28:12.082Z,18.90
2019-05-13T15:30:38.852Z,18.80
2019-05-13T15:33:05.486Z,18.80
2019-05-13T15:35:32.418Z,19.00
2019-05-13T15:37:59.333Z,19.10
2019-05-13T15:40:27.652Z,19.00
2019-05-13T15:42:54.346Z,18.80
2019-05-13T15:45:21.424Z,18.60
2019-05-13T15:47:48.146Z,18.70
2019-05-13T15:50:14.845Z,19.10
2019-05-13T15:52:43.239Z,19.10
2019-05-13T15:55:11.979Z,19.00
2019-05-13T15:57:38.700Z,19.10
2019-05-13T16:00:06.876Z,18.90
2019-05-13T16:02:33.717Z,18.90
2019-05-13T16:05:03.924Z,18.80
2019-05-13T16:07:30.424Z,18.70
2019-05-13T16:09:57.063Z,18.50
2019-05-13T16:12:23.688Z,18.50
2019-05-13T16:14:52.592Z,18.50
2019-05-13T16:17:23.056Z,18.50
2019-05-13T16:19:47.963Z,18.50
2019-05-13T16:22:14.676Z,18.40
2019-05-13T16:24:41.619Z,18.40
2019-05-13T16:27:11.836Z,18.40
2019-05-13T16:29:42.351Z,18.40
2019-05-13T16:32:11.818Z,18.30
2019-05-13T16:34:37.946Z,18.30
2019-05-13T16:37:17.801Z,18.40
2019-05-13T16:39:45.183Z,18.60
2019-05-13T16:42:14.236Z,18.70
2019-05-13T16:44:43.011Z,18.50
2019-05-13T16:47:12.149Z,18.60
2019-05-13T16:49:41.103Z,18.70
2019-05-13T16:52:11.474Z,18.70
2019-05-13T16:54:42.333Z,18.70
2019-05-13T16:57:07.549Z,18.70
2019-05-13T16:59:34.927Z,18.50
2019-05-13T17:02:02.098Z,18.40
2019-05-13T17:04:29.133Z,18.40
2019-05-13T17:06:56.211Z,18.40
2019-05-13T17:09:22.861Z,18.30
2019-05-13T17:11:51.818Z,18.40
2019-05-13T17:14:18.240Z,18.30
2019-05-13T17:16:44.914Z,18.20
2019-05-13T17:19:12.235Z,18.30
2019-05-13T17:21:41.114Z,18.20
2019-05-13T17:24:08.238Z,18.20
2019-05-13T17:26:34.953Z,18.30
2019-05-13T17:29:01.862Z,18.40
2019-05-13T17:31:28.450Z,18.30
2019-05-13T17:33:57.101Z,18.10
2019-05-13T17:36:24.058Z,18.00
2019-05-13T17:38:52.102Z,17.80
2019-05-13T17:41:21.231Z,17.80
2019-05-13T17:43:47.861Z,17.70
2019-05-13T17:46:14.535Z,17.80
2019-05-13T17:48:41.677Z,17.90
2019-05-13T17:51:12.690Z,17.80
2019-05-13T17:53:41.224Z,17.50
2019-05-13T17:56:11.198Z,17.60
2019-05-13T17:58:38.081Z,17.80
2019-05-13T18:01:04.735Z,17.60
2019-05-13T18:03:32.271Z,17.60
2019-05-13T18:05:59.295Z,17.60
2019-05-13T18:08:26.347Z,17.50
2019-05-13T18:10:53.103Z,17.40
2019-05-13T18:13:21.542Z,17.40
2019-05-13T18:15:48.427Z,17.50
2019-05-13T18:18:15.153Z,17.70
2019-05-13T18:20:42.026Z,17.70
2019-05-13T18:23:09.171Z,17.50
2019-05-13T18:25:36.309Z,17.50
2019-05-13T18:28:03.495Z,17.40
2019-05-13T18:30:31.791Z,17.50
2019-05-13T18:33:01.050Z,17.60
2019-05-13T18:35:28.494Z,17.60
2019-05-13T18:38:01.181Z,17.60
2019-05-13T18:40:27.820Z,17.60
2019-05-13T18:42:54.802Z,17.70
2019-05-13T18:45:22.165Z,17.60
2019-05-13T18:47:51.352Z,17.50
2019-05-13T18:50:18.428Z,17.30
2019-05-13T18:52:45.074Z,17.30
2019-05-13T18:55:12.572Z,17.30
2019-05-13T18:57:39.673Z,17.00
2019-05-13T19:00:07.055Z,17.10
2019-05-13T19:02:33.776Z,17.10
2019-05-13T19:05:01.479Z,17.10
2019-05-13T19:07:31.375Z,17.00
2019-05-13T19:09:57.872Z,16.90
2019-05-13T19:12:25.804Z,16.70
2019-05-13T19:14:55.351Z,16.70
2019-05-13T19:17:22.470Z,16.70
2019-05-13T19:19:51.347Z,16.60
2019-05-13T19:22:17.749Z,16.50
2019-05-13T19:24:44.406Z,16.50
2019-05-13T19:27:12.031Z,16.30
2019-05-13T19:29:38.976Z,16.30
2019-05-13T19:32:05.742Z,16.20
2019-05-13T19:34:32.643Z,16.30
2019-05-13T19:37:02.157Z,16.30
2019-05-13T19:39:31.044Z,16.10
2019-05-13T19:41:57.829Z,16.10
2019-05-13T19:44:24.666Z,16.30
2019-05-13T19:46:52.318Z,16.30
2019-05-13T19:49:29.715Z,16.20
2019-05-13T19:51:48.191Z,16.00
2019-05-13T19:54:15.011Z,16.00
2019-05-13T19:56:41.941Z,16.00
2019-05-13T19:59:09.482Z,15.90
2019-05-13T20:01:36.229Z,15.80
2019-05-13T20:04:02.883Z,15.60
2019-05-13T20:06:31.968Z,15.60
2019-05-13T20:09:01.267Z,15.60
2019-05-13T20:11:27.653Z,15.50
2019-05-13T20:13:54.290Z,15.30
2019-05-13T20:16:22.167Z,15.20
2019-05-13T20:19:02.856Z,15.30
2019-05-13T20:21:43.374Z,15.30
2019-05-13T20:24:11.845Z,15.30
2019-05-13T20:26:38.837Z,15.30
2019-05-13T20:29:05.775Z,15.10
2019-05-13T20:31:33.563Z,15.00
2019-05-13T20:34:01.713Z,15.10
2019-05-13T20:36:28.496Z,15.10
2019-05-13T20:38:55.289Z,15.10
2019-05-13T20:41:22.493Z,15.00
2019-05-13T20:43:51.889Z,14.90
2019-05-13T20:46:17.835Z,14.90
2019-05-13T20:48:44.482Z,14.80
2019-05-13T20:51:11.450Z,14.70
2019-05-13T20:53:41.269Z,14.70
2019-05-13T20:56:08.405Z,14.60
2019-05-13T20:58:35.176Z,14.80
2019-05-13T21:01:02.506Z,14.70
2019-05-13T21:03:31.417Z,14.70
2019-05-13T21:05:59.200Z,14.50
2019-05-13T21:08:25.918Z,14.40
2019-05-13T21:10:52.847Z,14.30
2019-05-13T21:13:21.194Z,14.20
2019-05-13T21:15:48.131Z,14.30
2019-05-13T21:18:15.190Z,14.40
2019-05-13T21:20:42.064Z,14.40
2019-05-13T21:23:11.135Z,14.40
2019-05-13T21:25:37.282Z,14.40
2019-05-13T21:28:04.161Z,14.30
2019-05-13T21:30:30.788Z,14.10
2019-05-13T21:32:57.646Z,14.10
2019-05-13T21:35:24.269Z,14.10
2019-05-13T21:37:51.191Z,14.20
2019-05-13T21:40:18.246Z,14.20
2019-05-13T21:42:45.181Z,14.00
2019-05-13T21:45:12.134Z,14.10
2019-05-13T21:47:38.931Z,14.10
2019-05-13T21:50:06.239Z,14.10
2019-05-13T21:52:32.958Z,14.10
2019-05-13T21:55:01.734Z,14.20
2019-05-13T21:57:28.181Z,14.10
2019-05-13T21:59:55.031Z,14.20
2019-05-13T22:02:23.437Z,14.00
2019-05-13T22:04:51.876Z,13.80
2019-05-13T22:07:18.766Z,13.80
2019-05-13T22:09:45.854Z,13.90
2019-05-13T22:12:12.601Z,13.80
2019-05-13T22:14:41.220Z,13.70
2019-05-13T22:17:08.991Z,13.60
2019-05-13T22:19:35.823Z,13.60
2019-05-13T22:22:02.601Z,13.50
2019-05-13T22:24:31.245Z,13.50
2019-05-13T22:26:57.948Z,13.40
2019-05-13T22:29:25.756Z,13.40
2019-05-13T22:31:54.258Z,13.50
2019-05-13T22:34:21.998Z,13.50
2019-05-13T22:36:48.740Z,13.40
2019-05-13T22:39:15.557Z,13.40
2019-05-13T22:41:42.342Z,13.50
2019-05-13T22:44:11.420Z,13.30
2019-05-13T22:46:37.737Z,13.30
2019-05-13T22:49:04.606Z,13.20
2019-05-13T22:51:32.003Z,13.20
2019-05-13T22:53:58.819Z,13.10
2019-05-13T22:56:25.434Z,13.00
2019-05-13T22:58:52.074Z,12.90
2019-05-13T23:01:32.504Z,13.00
2019-05-13T23:03:59.116Z,13.30
2019-05-13T23:06:25.746Z,13.00
2019-05-13T23:08:52.372Z,13.10
2019-05-13T23:11:21.766Z,13.20
2019-05-13T23:13:47.800Z,13.20
2019-05-13T23:16:14.518Z,13.00
2019-05-13T23:18:42.060Z,12.90
2019-05-13T23:21:11.345Z,13.00
2019-05-13T23:23:37.528Z,12.90
2019-05-13T23:26:04.128Z,12.80
2019-05-13T23:28:32.271Z,12.70
2019-05-13T23:31:01.695Z,12.70
2019-05-13T23:33:28.546Z,12.90
2019-05-13T23:35:55.289Z,12.80
2019-05-13T23:38:21.910Z,12.90
2019-05-13T23:40:48.693Z,12.90
2019-05-13T23:43:15.294Z,12.70
2019-05-13T23:45:41.888Z,12.80
2019-05-13T23:48:08.628Z,12.80
2019-05-13T23:50:35.370Z,12.80
2019-05-13T23:53:02.090Z,13.00
2019-05-13T23:55:31.971Z,13.00
2019-05-13T23:57:58.296Z,12.90
